Time;durP1;ratioP1;P1;durP2;ratioP2;P2;SDS_P1;SDS_P2;PMS_P1;PMS_P2;Temp;Humidity;BMP_temperature;BMP_pressure;BME280_temperature;BME280_humidity;BME280_pressure;Samples;Min_cycle;Max_cycle;Signal;HPM_P1;HPM_P2
2022/01/30 00:01:24;;;;;;;17.20;4.38;;;9.80;65.10;;;;;;5095281;28;20120;-64
2022/01/30 00:03:50;;;;;;;13.68;3.35;;;9.90;65.10;;;;;;5095058;28;20020;-65
2022/01/30 00:06:15;;;;;;;16.98;3.25;;;9.80;65.10;;;;;;5094987;28;20051;-67
2022/01/30 00:08:41;;;;;;;11.38;3.22;;;9.90;65.10;;;;;;5094801;28;20020;-64
2022/01/30 00:11:14;;;;;;;21.08;4.15;;;9.90;65.10;;;;;;5094426;28;20020;-64
2022/01/30 00:13:40;;;;;;;15.50;3.08;;;9.90;65.10;;;;;;5095025;28;20021;-64
2022/01/30 00:16:09;;;;;;;14.07;3.80;;;9.90;65.10;;;;;;5094994;28;20028;-64
2022/01/30 00:18:53;;;;;;;17.77;3.75;;;9.90;65.20;;;;;;5094526;28;20436;-64
2022/01/30 00:24:01;;;;;;;12.82;3.20;;;9.80;65.20;;;;;;5094280;28;20036;-64
2022/01/30 00:26:30;;;;;;;16.45;3.70;;;9.80;65.20;;;;;;5094880;28;20461;-64
2022/01/30 00:28:57;;;;;;;17.73;4.15;;;9.70;65.30;;;;;;5076154;28;20028;-64
2022/01/30 00:31:24;;;;;;;14.80;3.70;;;9.70;65.20;;;;;;5093225;28;20456;-64
2022/01/30 00:33:50;;;;;;;16.83;3.97;;;9.70;65.30;;;;;;5094646;28;20058;-64
2022/01/30 00:36:18;;;;;;;11.40;3.63;;;9.70;65.30;;;;;;5094119;28;20029;-64
2022/01/30 00:38:43;;;;;;;18.08;4.00;;;9.70;65.50;;;;;;5093145;28;20418;-64
2022/01/30 00:41:09;;;;;;;16.73;3.75;;;9.70;65.20;;;;;;5094378;28;20110;-64
2022/01/30 00:43:36;;;;;;;16.83;3.58;;;9.70;65.20;;;;;;5093036;28;20133;-64
2022/01/30 00:46:01;;;;;;;16.02;3.78;;;9.70;65.20;;;;;;5096642;28;20459;-64
2022/01/30 00:48:28;;;;;;;17.85;4.25;;;9.70;65.20;;;;;;5098421;28;20020;-64
2022/01/30 00:50:53;;;;;;;15.45;4.68;;;9.60;65.10;;;;;;5098604;28;20080;-64
2022/01/30 00:53:19;;;;;;;18.95;3.75;;;9.70;65.10;;;;;;5096680;28;20020;-64
2022/01/30 00:55:45;;;;;;;20.52;3.30;;;9.60;65.10;;;;;;5098348;28;20064;-64
2022/01/30 00:58:11;;;;;;;17.65;4.15;;;9.60;65.20;;;;;;5097679;28;20104;-64
2022/01/30 01:00:38;;;;;;;22.23;3.90;;;9.60;65.10;;;;;;5096958;28;20024;-64
2022/01/30 01:03:05;;;;;;;17.25;4.10;;;9.60;65.10;;;;;;5097119;28;20020;-64
2022/01/30 01:05:33;;;;;;;12.88;3.90;;;9.60;65.10;;;;;;5098783;28;20028;-64
2022/01/30 01:08:07;;;;;;;16.02;4.43;;;9.60;65.10;;;;;;5080619;28;20031;-64
2022/01/30 01:10:39;;;;;;;16.58;4.10;;;9.60;65.10;;;;;;5098605;28;20032;-64
2022/01/30 01:20:58;;;;;;;15.52;3.38;;;9.50;65.20;;;;;;5097799;28;20032;-63
2022/01/30 01:23:52;;;;;;;16.88;3.53;;;9.50;65.20;;;;;;5098128;28;20393;-64
2022/01/30 01:26:20;;;;;;;17.98;3.78;;;9.50;65.20;;;;;;5095247;28;20044;-64
2022/01/30 01:28:45;;;;;;;13.60;3.60;;;9.60;65.20;;;;;;5081487;28;20028;-65
2022/01/30 01:31:12;;;;;;;11.43;2.50;;;9.60;65.10;;;;;;5096972;28;20166;-65
2022/01/30 01:36:23;;;;;;;12.45;3.13;;;9.60;64.80;;;;;;5097970;28;20408;-65
2022/01/30 01:38:49;;;;;;;9.15;2.45;;;9.60;64.60;;;;;;5097533;28;20052;-64
2022/01/30 01:41:18;;;;;;;10.10;2.15;;;9.60;64.70;;;;;;5097585;28;20086;-64
2022/01/30 01:43:44;;;;;;;9.00;2.10;;;9.60;64.60;;;;;;5097543;28;20047;-64
2022/01/30 01:46:17;;;;;;;10.00;2.25;;;9.60;64.60;;;;;;5096658;28;20028;-64
2022/01/30 01:48:45;;;;;;;15.10;3.05;;;9.50;64.60;;;;;;5110178;28;20118;-64
2022/01/30 01:51:18;;;;;;;11.32;2.92;;;9.50;64.60;;;;;;5097338;28;20043;-64
2022/01/30 01:53:45;;;;;;;10.93;2.22;;;9.50;64.60;;;;;;5096338;28;20035;-63
2022/01/30 01:56:14;;;;;;;12.30;2.60;;;9.60;64.70;;;;;;5094940;28;20030;-64
2022/01/30 01:58:41;;;;;;;10.88;2.47;;;9.50;64.70;;;;;;5113151;28;20119;-64
2022/01/30 02:01:26;;;;;;;13.07;3.15;;;9.50;64.80;;;;;;5097375;28;20054;-63
2022/01/30 02:03:53;;;;;;;10.27;2.72;;;9.50;65.00;;;;;;5096164;28;20107;-63
2022/01/30 02:06:21;;;;;;;11.50;2.90;;;9.50;65.00;;;;;;5097193;28;20379;-64
2022/01/30 02:08:58;;;;;;;9.90;2.40;;;9.40;65.10;;;;;;5095633;28;20492;-64
2022/01/30 02:25:02;;;;;;;14.52;2.97;;;9.40;65.70;;;;;;5096057;28;20031;-64
2022/01/30 02:27:27;;;;;;;11.45;2.85;;;9.40;65.80;;;;;;5095022;28;20109;-64
2022/01/30 02:29:53;;;;;;;11.80;2.80;;;9.30;66.00;;;;;;5096153;28;20052;-64
2022/01/30 02:32:19;;;;;;;11.82;2.25;;;9.30;66.20;;;;;;5096158;28;20606;-64
2022/01/30 02:34:45;;;;;;;14.30;3.83;;;9.30;66.40;;;;;;5096558;28;20103;-64
2022/01/30 02:37:13;;;;;;;14.05;2.75;;;9.20;66.40;;;;;;5095447;28;20433;-64
2022/01/30 02:39:39;;;;;;;12.70;2.20;;;9.20;67.20;;;;;;5095074;28;20349;-64
2022/01/30 02:42:05;;;;;;;11.48;2.22;;;9.20;66.60;;;;;;5096396;28;20028;-64
2022/01/30 02:44:40;;;;;;;10.02;2.15;;;9.30;66.60;;;;;;5095861;28;20566;-64
2022/01/30 02:47:21;;;;;;;12.57;3.25;;;9.30;66.60;;;;;;5095199;28;20028;-64
2022/01/30 02:50:09;;;;;;;9.63;2.30;;;9.20;66.50;;;;;;5103441;28;20027;-64
2022/01/30 02:52:35;;;;;;;10.88;2.85;;;9.20;66.50;;;;;;5094742;28;20024;-64
2022/01/30 02:55:01;;;;;;;7.15;1.48;;;9.20;66.50;;;;;;5078450;28;20020;-64
2022/01/30 02:57:26;;;;;;;13.73;2.67;;;9.20;66.40;;;;;;5094460;28;20024;-64
2022/01/30 02:59:52;;;;;;;9.57;2.42;;;9.20;66.30;;;;;;5094666;28;20031;-64
2022/01/30 03:02:19;;;;;;;12.65;2.83;;;9.20;66.30;;;;;;5072435;28;20028;-64
2022/01/30 03:04:44;;;;;;;9.60;2.33;;;9.20;66.30;;;;;;5094953;28;20024;-64
2022/01/30 03:07:10;;;;;;;9.60;2.42;;;9.20;66.20;;;;;;5095555;28;20039;-64
2022/01/30 03:09:42;;;;;;;11.25;2.15;;;9.10;66.20;;;;;;5094810;28;20028;-64
2022/01/30 03:12:08;;;;;;;13.77;3.15;;;9.10;66.20;;;;;;5093948;28;20356;-64
2022/01/30 03:14:34;;;;;;;9.88;2.60;;;9.10;66.10;;;;;;5094900;28;20459;-64
2022/01/30 03:17:00;;;;;;;10.70;2.30;;;9.10;66.10;;;;;;5094310;28;20100;-64
2022/01/30 03:19:26;;;;;;;11.02;2.50;;;9.20;66.10;;;;;;5094481;28;20123;-64
2022/01/30 03:21:52;;;;;;;10.32;2.33;;;9.20;66.10;;;;;;5094092;28;20034;-64
2022/01/30 03:24:17;;;;;;;12.10;2.80;;;9.10;66.10;;;;;;5094948;28;20032;-64
2022/01/30 03:26:44;;;;;;;8.73;2.60;;;9.10;66.10;;;;;;5094318;28;20035;-64
2022/01/30 03:29:27;;;;;;;11.20;2.20;;;9.10;66.10;;;;;;5095458;28;20089;-64
2022/01/30 03:31:53;;;;;;;13.05;3.13;;;9.10;66.20;;;;;;5094049;28;20020;-64
2022/01/30 03:34:19;;;;;;;13.85;2.63;;;9.10;66.10;;;;;;5094642;28;20040;-64
2022/01/30 03:36:49;;;;;;;18.05;3.85;;;9.00;66.10;;;;;;5094563;28;20064;-64
2022/01/30 03:39:15;;;;;;;15.30;2.22;;;9.00;66.10;;;;;;5095409;28;20077;-64
2022/01/30 03:41:41;;;;;;;11.18;2.65;;;9.00;66.10;;;;;;5094402;28;20040;-63
2022/01/30 03:44:10;;;;;;;10.18;2.50;;;9.00;66.70;;;;;;5094284;28;20028;-64
2022/01/30 03:46:36;;;;;;;8.40;1.83;;;9.00;66.00;;;;;;5094156;28;20097;-64
2022/01/30 03:49:02;;;;;;;8.80;2.33;;;9.00;65.90;;;;;;5093132;28;20040;-64
2022/01/30 03:51:30;;;;;;;10.60;2.25;;;9.00;65.80;;;;;;5095791;28;20051;-64
2022/01/30 03:54:03;;;;;;;16.50;3.00;;;9.00;65.80;;;;;;5093781;28;20040;-64
2022/01/30 03:56:29;;;;;;;12.38;2.90;;;8.90;65.80;;;;;;5110934;28;20107;-64
2022/01/30 03:58:54;;;;;;;7.70;2.03;;;8.90;65.60;;;;;;5093630;28;20173;-64
2022/01/30 04:01:20;;;;;;;8.90;3.10;;;9.00;65.60;;;;;;5093984;28;20028;-64
2022/01/30 04:03:46;;;;;;;10.32;2.25;;;9.00;65.40;;;;;;5093412;28;20502;-64
2022/01/30 04:06:12;;;;;;;11.77;2.22;;;8.90;65.30;;;;;;5094386;28;20036;-64
2022/01/30 04:08:39;;;;;;;14.15;2.85;;;8.90;65.30;;;;;;5093696;28;20107;-64
2022/01/30 04:11:25;;;;;;;10.95;2.42;;;8.90;65.20;;;;;;5073905;28;20024;-64
2022/01/30 04:14:04;;;;;;;9.23;2.17;;;8.90;65.20;;;;;;5093670;28;20111;-64
2022/01/30 04:17:02;;;;;;;11.43;2.13;;;8.90;65.30;;;;;;5052338;28;20048;-64
2022/01/30 04:19:47;;;;;;;11.88;3.28;;;8.90;65.30;;;;;;5052013;28;20044;-64
2022/01/30 04:22:35;;;;;;;11.75;2.55;;;8.90;65.30;;;;;;5052231;28;20094;-64
2022/01/30 04:25:15;;;;;;;12.07;2.95;;;8.80;65.30;;;;;;5052997;28;20430;-64
2022/01/30 04:28:02;;;;;;;9.25;2.28;;;8.80;65.40;;;;;;5052275;28;20044;-65
2022/01/30 04:30:56;;;;;;;12.10;2.40;;;8.80;65.40;;;;;;5052085;28;20025;-64
2022/01/30 04:33:27;;;;;;;13.00;2.47;;;8.80;65.50;;;;;;5035121;28;20156;-63
2022/01/30 04:36:15;;;;;;;11.32;2.30;;;8.80;65.50;;;;;;5036306;28;20040;-64
2022/01/30 04:39:06;;;;;;;9.95;2.28;;;8.80;65.30;;;;;;5051976;28;20052;-63
2022/01/30 04:42:09;;;;;;;14.10;2.83;;;8.80;65.40;;;;;;5052672;28;20095;-63
2022/01/30 04:57:36;;;;;;;8.93;2.20;;;8.80;65.50;;;;;;5032624;28;20087;-63
2022/01/30 05:06:32;;;;;;;12.45;3.17;;;8.80;65.50;;;;;;4989447;28;20135;-63
2022/01/30 05:09:12;;;;;;;7.65;2.13;;;8.70;65.50;;;;;;5006663;28;20038;-63
2022/01/30 05:11:56;;;;;;;8.35;2.17;;;8.80;65.60;;;;;;5031838;28;20481;-63
2022/01/30 05:14:39;;;;;;;11.65;2.58;;;8.80;65.60;;;;;;5015927;28;20160;-63
2022/01/30 05:17:34;;;;;;;11.57;2.50;;;8.80;65.50;;;;;;5016251;28;20071;-63
2022/01/30 05:20:10;;;;;;;11.55;2.50;;;8.70;65.40;;;;;;5032242;28;20382;-63
2022/01/30 05:23:03;;;;;;;12.05;2.50;;;8.70;65.40;;;;;;5077311;28;20047;-63
2022/01/30 05:25:34;;;;;;;14.23;2.33;;;8.70;65.40;;;;;;5093904;28;20032;-63
2022/01/30 05:28:08;;;;;;;12.00;3.33;;;8.70;65.50;;;;;;5090898;28;20040;-63
2022/01/30 05:31:01;;;;;;;11.45;2.08;;;8.70;65.40;;;;;;5092279;28;20409;-63
2022/01/30 05:33:39;;;;;;;12.32;2.45;;;8.70;65.40;;;;;;5092902;28;20044;-63
2022/01/30 05:36:24;;;;;;;11.27;2.42;;;8.70;65.40;;;;;;5095466;28;20086;-64
2022/01/30 05:39:16;;;;;;;11.48;2.17;;;8.70;65.30;;;;;;5074537;28;20043;-64
2022/01/30 05:42:02;;;;;;;11.57;2.40;;;8.70;65.30;;;;;;5095716;28;20463;-63
2022/01/30 05:47:49;;;;;;;9.40;2.20;;;8.70;65.40;;;;;;5096350;28;20116;-63
2022/01/30 05:50:40;;;;;;;8.70;2.20;;;8.70;65.40;;;;;;5076205;28;20028;-63
2022/01/30 05:53:09;;;;;;;11.30;2.00;;;8.70;65.50;;;;;;5113070;28;20023;-63
2022/01/30 05:55:41;;;;;;;18.70;3.35;;;8.70;65.50;;;;;;5096465;28;20020;-63
2022/01/30 05:58:08;;;;;;;11.18;2.15;;;8.70;65.50;;;;;;5096101;28;20032;-63
2022/01/30 06:00:57;;;;;;;11.60;2.28;;;8.60;65.50;;;;;;5091629;28;20043;-62
2022/01/30 06:03:22;;;;;;;12.82;2.75;;;8.60;65.60;;;;;;5096348;28;20032;-62
2022/01/30 06:05:49;;;;;;;14.30;3.05;;;8.60;65.60;;;;;;5096520;28;20032;-63
2022/01/30 06:08:27;;;;;;;11.90;2.88;;;8.60;65.60;;;;;;5097350;28;20031;-63
2022/01/30 06:10:53;;;;;;;12.55;3.03;;;8.70;65.70;;;;;;5096511;28;20490;-63
2022/01/30 06:13:18;;;;;;;12.15;2.45;;;8.70;65.70;;;;;;5095793;28;20024;-63
2022/01/30 06:15:44;;;;;;;13.57;3.10;;;8.70;65.70;;;;;;5096564;28;20079;-63
2022/01/30 06:18:17;;;;;;;16.10;3.40;;;8.70;65.70;;;;;;5096053;28;20072;-63
2022/01/30 06:21:01;;;;;;;10.82;2.33;;;8.70;65.80;;;;;;5096354;28;20039;-63
2022/01/30 06:23:45;;;;;;;11.00;2.88;;;8.70;65.80;;;;;;5076809;28;20128;-63
2022/01/30 06:26:42;;;;;;;13.38;3.22;;;8.70;65.90;;;;;;5079885;28;20146;-63
2022/01/30 06:29:37;;;;;;;12.48;2.40;;;8.70;66.10;;;;;;5094522;28;20483;-63
2022/01/30 06:32:21;;;;;;;18.23;2.95;;;8.70;66.20;;;;;;5096219;28;20067;-63
2022/01/30 06:35:21;;;;;;;14.57;3.53;;;8.70;66.30;;;;;;5086581;28;20476;-63
2022/01/30 06:38:16;;;;;;;19.15;3.55;;;8.60;66.50;;;;;;5079737;28;20112;-63
2022/01/30 06:41:20;;;;;;;15.13;2.60;;;8.60;66.60;;;;;;5093709;28;20028;-64
2022/01/30 06:44:06;;;;;;;13.85;2.47;;;8.60;66.70;;;;;;5095527;28;20195;-63
2022/01/30 06:47:10;;;;;;;12.00;2.85;;;8.50;66.70;;;;;;5097196;28;20115;-63
2022/01/30 06:49:36;;;;;;;18.50;3.50;;;8.50;66.80;;;;;;5096012;28;20479;-63
2022/01/30 06:52:13;;;;;;;16.80;3.63;;;8.50;66.90;;;;;;5094939;28;20032;-63
2022/01/30 06:54:56;;;;;;;13.93;2.47;;;8.50;66.90;;;;;;5096286;28;20035;-63
2022/01/30 06:57:45;;;;;;;17.33;4.38;;;8.50;67.00;;;;;;5095596;28;20039;-63
2022/01/30 07:00:29;;;;;;;14.93;2.78;;;8.50;67.10;;;;;;5095883;28;20057;-63
2022/01/30 07:03:14;;;;;;;17.30;3.42;;;8.50;67.10;;;;;;5096715;28;20387;-63
2022/01/30 07:05:50;;;;;;;15.38;4.40;;;8.50;67.20;;;;;;5111981;28;20020;-63
2022/01/30 07:08:26;;;;;;;14.70;3.20;;;8.50;67.30;;;;;;5094843;28;20032;-63
2022/01/30 07:10:51;;;;;;;12.20;2.50;;;8.40;67.40;;;;;;5096127;28;20115;-63
2022/01/30 07:13:17;;;;;;;14.02;3.75;;;8.50;67.40;;;;;;5094841;28;20073;-64
2022/01/30 07:15:42;;;;;;;13.43;2.47;;;8.50;67.40;;;;;;5096613;28;20028;-65
2022/01/30 07:18:08;;;;;;;16.92;3.83;;;8.40;67.40;;;;;;5095174;28;20402;-65
2022/01/30 07:20:34;;;;;;;14.45;3.25;;;8.50;67.40;;;;;;5094581;28;20040;-65
2022/01/30 07:23:00;;;;;;;14.80;3.78;;;8.50;67.40;;;;;;5096075;28;20035;-65
2022/01/30 07:25:25;;;;;;;18.00;4.18;;;8.50;67.50;;;;;;5095865;28;20066;-65
2022/01/30 07:27:51;;;;;;;10.13;3.35;;;8.50;67.40;;;;;;5094094;28;20027;-65
2022/01/30 07:30:16;;;;;;;18.35;3.55;;;8.50;67.40;;;;;;5094113;28;20028;-65
2022/01/30 07:32:42;;;;;;;16.27;3.92;;;8.40;67.40;;;;;;5094891;28;20428;-65
2022/01/30 07:35:08;;;;;;;16.63;3.83;;;8.50;67.60;;;;;;5095071;28;20020;-65
2022/01/30 07:37:35;;;;;;;12.82;3.78;;;8.50;67.50;;;;;;5095358;28;20027;-65
2022/01/30 07:40:02;;;;;;;20.85;4.05;;;8.50;67.40;;;;;;5095421;28;20085;-66
2022/01/30 07:42:28;;;;;;;14.32;2.67;;;8.60;67.40;;;;;;5094803;28;20441;-65
2022/01/30 07:44:56;;;;;;;19.85;3.67;;;8.60;67.40;;;;;;5094341;28;20207;-66
2022/01/30 07:47:25;;;;;;;17.77;3.92;;;8.60;67.40;;;;;;5095468;28;20064;-66
2022/01/30 07:49:53;;;;;;;14.52;3.40;;;8.60;67.30;;;;;;5095043;28;20028;-65
2022/01/30 07:52:22;;;;;;;20.35;3.45;;;8.50;67.20;;;;;;5094077;28;20174;-65
2022/01/30 07:54:49;;;;;;;13.00;3.15;;;8.50;67.20;;;;;;5093177;28;20020;-65
2022/01/30 07:57:15;;;;;;;19.10;2.95;;;8.60;67.10;;;;;;5094622;28;20444;-65
2022/01/30 07:59:41;;;;;;;18.42;3.85;;;8.60;67.10;;;;;;5094114;28;20038;-65
2022/01/30 08:02:07;;;;;;;17.05;3.00;;;8.60;67.00;;;;;;5088415;28;20032;-66
2022/01/30 08:04:33;;;;;;;19.65;4.05;;;8.60;66.90;;;;;;5094686;28;20036;-66
2022/01/30 08:06:59;;;;;;;19.98;3.72;;;8.60;66.80;;;;;;5095070;28;20043;-66
2022/01/30 08:09:25;;;;;;;11.80;2.92;;;8.70;66.80;;;;;;5093941;28;20028;-65
2022/01/30 08:11:51;;;;;;;18.98;4.15;;;8.70;66.70;;;;;;5095243;28;20307;-65
2022/01/30 08:14:16;;;;;;;11.38;3.60;;;8.70;66.60;;;;;;5094022;28;20023;-65
2022/01/30 08:16:42;;;;;;;15.63;3.92;;;8.70;66.50;;;;;;5093641;28;20032;-65
2022/01/30 08:19:07;;;;;;;18.88;3.05;;;8.70;66.50;;;;;;5094006;28;20039;-65
2022/01/30 08:21:33;;;;;;;8.65;2.92;;;8.70;66.40;;;;;;5093978;28;20120;-65
2022/01/30 08:23:58;;;;;;;13.95;3.67;;;8.70;66.40;;;;;;5092891;28;20035;-65
2022/01/30 08:26:24;;;;;;;14.13;3.00;;;8.70;66.30;;;;;;5094102;28;20030;-65
2022/01/30 08:28:50;;;;;;;21.60;3.85;;;8.70;66.30;;;;;;5094017;28;20085;-65
2022/01/30 08:31:15;;;;;;;16.15;3.22;;;8.70;66.20;;;;;;5094698;28;20031;-65
2022/01/30 08:33:41;;;;;;;13.13;3.40;;;8.80;66.20;;;;;;5093133;28;20044;-65
2022/01/30 08:36:07;;;;;;;15.05;3.00;;;8.80;66.10;;;;;;5093320;28;20507;-65
2022/01/30 08:38:33;;;;;;;21.95;5.55;;;8.90;66.00;;;;;;5094676;28;20039;-66
2022/01/30 08:40:58;;;;;;;17.88;3.38;;;8.90;65.70;;;;;;5094449;28;20115;-65
2022/01/30 08:43:24;;;;;;;15.13;3.63;;;9.00;65.60;;;;;;5093225;28;20073;-67
2022/01/30 08:45:51;;;;;;;19.08;3.63;;;9.00;65.50;;;;;;5094636;28;20409;-66
2022/01/30 08:48:18;;;;;;;12.93;3.22;;;9.00;65.50;;;;;;5094765;28;20040;-66
2022/01/30 08:50:45;;;;;;;16.58;3.33;;;9.00;65.40;;;;;;5087893;28;20324;-66
2022/01/30 08:53:11;;;;;;;15.20;3.30;;;9.00;65.30;;;;;;5094847;28;20084;-66
2022/01/30 08:55:36;;;;;;;17.92;3.45;;;9.00;65.30;;;;;;5094303;28;20429;-66
2022/01/30 08:58:09;;;;;;;17.33;4.07;;;9.00;65.20;;;;;;5093029;28;20031;-66
2022/01/30 09:00:40;;;;;;;18.30;4.60;;;9.00;65.30;;;;;;5094875;28;20044;-66
2022/01/30 09:03:06;;;;;;;14.10;2.95;;;9.00;65.20;;;;;;5093949;28;20036;-66
2022/01/30 09:05:33;;;;;;;18.92;3.80;;;9.10;65.20;;;;;;5095619;28;20028;-65
2022/01/30 09:08:04;;;;;;;18.63;3.80;;;9.20;65.00;;;;;;5098701;28;20035;-65
2022/01/30 09:10:30;;;;;;;18.33;4.73;;;9.30;64.70;;;;;;5099005;28;20046;-65
2022/01/30 09:12:55;;;;;;;19.08;4.35;;;9.40;64.50;;;;;;5097712;28;20115;-64
2022/01/30 09:15:21;;;;;;;18.00;3.58;;;9.40;64.40;;;;;;5098340;28;20112;-64
2022/01/30 09:17:47;;;;;;;16.00;3.83;;;9.50;64.20;;;;;;5097521;28;20093;-64
2022/01/30 09:20:13;;;;;;;15.02;3.75;;;9.50;64.00;;;;;;5098109;28;20028;-64
2022/01/30 09:22:39;;;;;;;15.65;3.67;;;9.50;64.00;;;;;;5097639;28;20111;-65
2022/01/30 09:25:06;;;;;;;14.20;3.00;;;9.50;64.00;;;;;;5098237;28;20020;-65
2022/01/30 09:27:31;;;;;;;20.60;3.58;;;9.50;64.00;;;;;;5097304;28;20066;-65
2022/01/30 09:29:58;;;;;;;16.60;4.40;;;9.50;64.00;;;;;;5098017;28;20460;-65
2022/01/30 09:32:23;;;;;;;19.77;3.72;;;9.50;64.00;;;;;;5096944;28;20032;-66
2022/01/30 09:34:49;;;;;;;15.30;3.53;;;9.50;64.10;;;;;;5097981;28;20110;-65
2022/01/30 09:37:14;;;;;;;14.02;4.45;;;9.50;64.00;;;;;;5097291;28;20047;-65
2022/01/30 09:39:40;;;;;;;17.42;3.80;;;9.70;63.80;;;;;;5097093;28;20032;-65
2022/01/30 09:42:07;;;;;;;15.85;3.78;;;9.80;63.50;;;;;;5097497;28;20131;-65
2022/01/30 09:44:39;;;;;;;16.15;3.60;;;10.00;63.30;;;;;;5095607;28;20173;-65
2022/01/30 09:47:10;;;;;;;18.45;3.78;;;10.20;62.90;;;;;;5093373;28;20028;-65
2022/01/30 09:49:39;;;;;;;16.13;3.83;;;10.40;62.50;;;;;;5092540;28;20028;-65
2022/01/30 09:52:06;;;;;;;13.80;3.47;;;10.60;62.00;;;;;;5092800;28;20028;-66
2022/01/30 09:54:32;;;;;;;26.17;5.15;;;10.70;61.70;;;;;;5095227;28;20089;-66
2022/01/30 09:56:58;;;;;;;17.88;3.60;;;10.60;61.50;;;;;;5094994;28;20081;-65
2022/01/30 09:59:23;;;;;;;13.23;4.05;;;10.60;61.60;;;;;;5096352;28;20470;-66
2022/01/30 10:01:49;;;;;;;16.25;3.72;;;10.50;61.60;;;;;;5095073;28;20024;-66
2022/01/30 10:04:15;;;;;;;19.00;3.72;;;10.60;61.70;;;;;;5094698;28;20093;-66
2022/01/30 10:06:50;;;;;;;14.55;4.28;;;10.60;61.50;;;;;;5095935;28;20327;-65
2022/01/30 10:09:28;;;;;;;13.80;3.60;;;10.80;61.10;;;;;;5096148;28;20111;-65
2022/01/30 10:12:11;;;;;;;14.40;3.75;;;11.00;60.80;;;;;;5092852;28;20028;-65
2022/01/30 10:14:50;;;;;;;13.07;3.67;;;11.00;60.60;;;;;;5093458;28;20120;-65
2022/01/30 10:17:37;;;;;;;15.73;4.50;;;10.90;60.90;;;;;;5093517;28;20085;-65
2022/01/30 10:20:15;;;;;;;14.57;3.95;;;10.80;60.60;;;;;;5096361;28;20036;-65
2022/01/30 10:22:53;;;;;;;16.55;3.88;;;10.70;60.70;;;;;;5097383;28;20019;-66
2022/01/30 10:25:34;;;;;;;14.18;3.33;;;10.60;60.90;;;;;;5097094;28;20024;-65
2022/01/30 10:28:07;;;;;;;13.85;3.97;;;10.60;60.70;;;;;;5095881;28;20401;-65
2022/01/30 10:30:55;;;;;;;15.63;4.72;;;10.60;60.70;;;;;;5097447;28;20031;-66
2022/01/30 10:33:22;;;;;;;17.30;4.03;;;10.50;60.50;;;;;;5096716;28;20044;-65
2022/01/30 10:35:52;;;;;;;17.42;3.97;;;10.40;60.70;;;;;;5111560;28;20063;-65
2022/01/30 10:38:32;;;;;;;17.73;4.55;;;10.40;60.60;;;;;;5094069;28;20353;-64
2022/01/30 10:41:15;;;;;;;16.85;3.78;;;10.40;60.70;;;;;;5095171;28;20064;-65
2022/01/30 10:43:52;;;;;;;23.17;3.83;;;10.50;60.50;;;;;;5091781;28;20052;-65
2022/01/30 10:46:23;;;;;;;12.45;3.33;;;10.50;60.30;;;;;;5092504;28;20036;-66
2022/01/30 10:49:06;;;;;;;13.27;3.88;;;10.50;60.30;;;;;;5096470;28;20034;-65
2022/01/30 10:51:32;;;;;;;19.88;3.97;;;10.70;60.10;;;;;;5096607;28;20028;-65
2022/01/30 10:54:09;;;;;;;14.63;3.67;;;10.90;59.90;;;;;;5095029;28;20027;-65
2022/01/30 10:56:36;;;;;;;15.48;4.25;;;11.00;59.40;;;;;;5096795;28;20137;-65
2022/01/30 10:59:15;;;;;;;16.48;3.92;;;11.30;59.00;;;;;;5096416;28;20084;-65
2022/01/30 11:01:52;;;;;;;12.02;3.13;;;11.50;58.40;;;;;;5096807;28;20024;-65
2022/01/30 11:04:29;;;;;;;16.08;3.47;;;11.50;58.30;;;;;;5095439;28;20028;-65
2022/01/30 11:06:56;;;;;;;14.55;3.53;;;11.50;58.30;;;;;;5095035;28;20028;-66
2022/01/30 11:09:30;;;;;;;14.00;4.13;;;11.40;58.40;;;;;;5093904;28;20070;-64
2022/01/30 11:12:15;;;;;;;18.98;4.82;;;11.40;58.30;;;;;;5095685;28;20036;-64
2022/01/30 11:17:21;;;;;;;15.57;4.72;;;11.60;57.90;;;;;;5094979;28;20016;-65
2022/01/30 11:19:51;;;;;;;18.88;4.32;;;11.70;57.60;;;;;;5095455;28;20349;-65
2022/01/30 11:22:22;;;;;;;22.02;5.38;;;11.70;57.60;;;;;;5095467;28;20475;-64
2022/01/30 11:24:49;;;;;;;24.77;4.03;;;11.60;57.60;;;;;;5093692;28;20460;-65
2022/01/30 11:27:17;;;;;;;13.68;4.50;;;11.50;57.60;;;;;;5075596;28;20038;-65
2022/01/30 11:29:43;;;;;;;19.15;4.45;;;11.30;57.50;;;;;;5096247;28;20040;-65
2022/01/30 11:32:09;;;;;;;15.98;4.72;;;11.30;57.70;;;;;;5094434;28;20460;-65
2022/01/30 11:34:37;;;;;;;17.42;3.80;;;11.20;57.50;;;;;;5094816;28;20445;-65
2022/01/30 11:37:05;;;;;;;16.88;4.20;;;11.30;57.40;;;;;;5094712;28;20453;-65
2022/01/30 11:39:31;;;;;;;18.92;4.40;;;11.40;57.30;;;;;;5093383;28;20032;-65
2022/01/30 11:42:14;;;;;;;18.02;4.20;;;11.40;57.10;;;;;;5092501;28;20024;-65
2022/01/30 11:44:43;;;;;;;16.70;4.70;;;11.50;56.70;;;;;;5090786;28;20089;-65
2022/01/30 11:47:09;;;;;;;14.98;4.28;;;11.50;56.70;;;;;;5094648;28;20035;-66
2022/01/30 11:49:48;;;;;;;18.63;3.95;;;11.50;56.60;;;;;;5093298;28;20036;-65
2022/01/30 11:52:15;;;;;;;18.45;4.03;;;11.40;56.20;;;;;;5092637;28;20020;-65
2022/01/30 11:54:46;;;;;;;18.27;4.38;;;11.40;56.40;;;;;;5091707;28;20441;-66
2022/01/30 11:57:21;;;;;;;16.77;3.85;;;11.40;56.30;;;;;;5093256;28;20036;-65
2022/01/30 11:59:48;;;;;;;16.25;4.18;;;11.40;56.30;;;;;;5092283;28;20104;-65
2022/01/30 12:02:30;;;;;;;16.52;4.00;;;11.40;56.40;;;;;;5092340;28;20032;-66
2022/01/30 12:05:06;;;;;;;16.90;3.60;;;11.40;56.10;;;;;;5089609;28;20028;-65
2022/01/30 12:07:42;;;;;;;16.35;4.63;;;11.40;56.10;;;;;;5091087;28;20043;-64
2022/01/30 12:10:16;;;;;;;19.15;3.88;;;11.30;56.10;;;;;;5090390;28;20036;-65
2022/01/30 12:12:52;;;;;;;18.67;4.40;;;11.30;56.00;;;;;;5092033;28;20388;-65
2022/01/30 12:15:44;;;;;;;18.25;4.90;;;11.30;56.00;;;;;;5090542;28;20024;-65
2022/01/30 12:18:33;;;;;;;13.10;3.55;;;11.20;55.70;;;;;;5092152;28;20422;-65
2022/01/30 12:21:05;;;;;;;12.38;3.67;;;11.10;55.90;;;;;;5093113;28;20123;-66
2022/01/30 12:23:33;;;;;;;19.65;4.43;;;11.20;56.60;;;;;;5091834;28;20020;-65
2022/01/30 12:26:05;;;;;;;15.88;3.83;;;11.30;55.70;;;;;;5092794;28;20043;-64
2022/01/30 12:28:39;;;;;;;18.10;3.85;;;11.30;55.40;;;;;;5093347;28;20032;-66
2022/01/30 12:31:34;;;;;;;17.08;3.47;;;11.20;55.00;;;;;;5090493;28;20097;-64
2022/01/30 12:34:02;;;;;;;16.15;4.25;;;11.10;55.10;;;;;;5083243;28;20052;-64
2022/01/30 12:36:30;;;;;;;15.38;3.92;;;11.10;55.20;;;;;;5093995;28;20367;-64
2022/01/30 12:39:07;;;;;;;16.73;4.00;;;11.20;55.20;;;;;;5094650;28;20342;-64
2022/01/30 12:41:35;;;;;;;15.20;3.70;;;11.20;55.00;;;;;;5094008;28;20039;-64
2022/01/30 12:44:04;;;;;;;18.17;4.88;;;11.20;54.90;;;;;;5094394;28;20089;-65
2022/01/30 12:46:34;;;;;;;19.45;4.35;;;11.20;54.80;;;;;;5093795;28;20040;-64
2022/01/30 12:49:02;;;;;;;15.20;3.60;;;11.20;54.70;;;;;;5094913;28;20051;-65
2022/01/30 12:51:29;;;;;;;18.23;4.47;;;11.20;54.60;;;;;;5094638;28;20032;-64
2022/01/30 12:53:56;;;;;;;18.58;4.40;;;11.20;54.60;;;;;;5094404;28;20460;-64
2022/01/30 12:56:23;;;;;;;22.60;4.70;;;11.20;54.70;;;;;;5093364;28;20104;-65
2022/01/30 12:58:54;;;;;;;14.60;4.30;;;11.10;54.70;;;;;;5093400;28;20084;-64
2022/01/30 13:01:24;;;;;;;19.30;4.80;;;11.10;54.50;;;;;;5094885;28;20043;-64
2022/01/30 13:04:08;;;;;;;14.05;4.13;;;11.10;54.30;;;;;;5094346;28;20040;-64
2022/01/30 13:06:39;;;;;;;14.60;4.13;;;11.00;54.20;;;;;;5094440;28;20396;-64
2022/01/30 13:09:06;;;;;;;19.17;4.20;;;11.00;54.30;;;;;;5094252;28;20089;-65
2022/01/30 13:11:32;;;;;;;17.38;3.35;;;11.00;54.40;;;;;;5093148;28;20393;-64
2022/01/30 13:14:03;;;;;;;19.88;4.20;;;11.10;54.40;;;;;;5094292;28;20047;-64
2022/01/30 13:16:39;;;;;;;13.60;3.88;;;11.10;54.50;;;;;;5094622;28;20027;-64
2022/01/30 13:19:07;;;;;;;23.08;4.28;;;11.10;54.40;;;;;;5076293;28;20078;-65
2022/01/30 13:21:34;;;;;;;19.60;3.95;;;11.00;54.50;;;;;;5093435;28;20039;-65
2022/01/30 13:24:03;;;;;;;18.10;4.28;;;11.00;54.60;;;;;;5094763;28;20089;-64
2022/01/30 13:26:37;;;;;;;12.88;3.50;;;11.00;54.70;;;;;;5093443;28;20118;-64
2022/01/30 13:29:07;;;;;;;14.52;4.10;;;10.90;54.70;;;;;;5094492;28;20090;-64
2022/01/30 13:31:34;;;;;;;16.83;4.40;;;10.90;54.90;;;;;;5094543;28;20024;-64
2022/01/30 13:34:16;;;;;;;15.20;4.10;;;10.90;54.90;;;;;;5093633;28;20414;-64
2022/01/30 13:36:43;;;;;;;13.85;3.00;;;11.00;54.90;;;;;;5093976;28;20024;-63
2022/01/30 13:39:14;;;;;;;16.05;4.50;;;11.00;54.70;;;;;;5093256;28;20059;-64
2022/01/30 13:42:31;;;;;;;17.38;4.63;;;11.00;54.40;;;;;;5093567;28;20038;-64
2022/01/30 13:44:50;;;;;;;12.93;3.65;;;10.90;54.30;;;;;;5085289;28;20051;-64
2022/01/30 13:47:21;;;;;;;15.32;3.63;;;10.80;54.50;;;;;;5087528;28;20028;-65
2022/01/30 13:49:49;;;;;;;15.70;4.18;;;10.80;54.00;;;;;;5090598;28;20112;-65
2022/01/30 13:52:17;;;;;;;22.88;4.47;;;10.80;54.10;;;;;;5091852;28;20035;-65
2022/01/30 13:54:57;;;;;;;12.02;3.65;;;10.80;54.10;;;;;;5096021;28;20028;-65
2022/01/30 13:57:38;;;;;;;18.13;4.18;;;10.80;53.90;;;;;;5087342;28;20326;-65
2022/01/30 14:00:07;;;;;;;13.13;3.47;;;10.70;53.80;;;;;;5097804;28;20387;-65
2022/01/30 14:02:32;;;;;;;13.88;4.22;;;10.60;54.00;;;;;;5097216;28;20038;-65